Simanggang, Malaysia
Current Conditions -  °F | °C
As of 6:00 PM on Tuesday 21 Oct 2014 (Local Time) from WBGY Reporting Station
Broken Clouds Broken Clouds  
Wind Chill: 82°   Ceiling: 30000
Heat Index: 91°   Visibility: 6mi
Dew Point: 77°   Wind: 5mph
Humidity: 84%   Direction: 310°NW
Pressure: 29.8"   Gusts: NA
Location:  1.23°N, 111.45°E
Report Text: WBGY 211000Z 31004KT 9999 FEW022 SCT150 BKN300 28/25 Q1009
Loading
Personal Weather Stations






























Interactive Weather Map
Tropical Storm Tracking
New forecast layout! Learn more

10-Day Weather Forecast

Advertisements
Track Severe Weather on mobile